OBBI/BAH METAR and TAF weather

Enter ICAO airport designator
Station Type Date Time Source
OBBI METAR 2020/07/06 19:00 UTC NOAA

OBBI 061900Z 00000KT CAVOK 36/19 Q0994 NOSIG


Station Type Date Time Source
OBBI Decoded METAR 2020/07/06 19:00 UTC NOAA

Bahrain International Airport , Bahrain (OBBI) 26-16N 050-39E 2M
Jul 06, 2020 - 03:00 PM EDT / 2020.07.06 1900 UTC
Wind: Calm:0
Visibility: greater than 7 mile(s):0
Temperature: 96 F (36 C)
Heat index: 98.6 F (37.0 C):1
Dew Point: 66 F (19 C)
Relative Humidity: 36%
Pressure (altimeter): 29.35 in. Hg (0994 hPa)
ob: OBBI 061900Z 00000KT CAVOK 36/19 Q0994 NOSIG
cycle: 19

Station Type Date Time Source
OBBI TAF 2020/07/06 18:19 UTC NOAA

TAF OBBI 061700Z 0618/0800 VRB05KT CAVOK
BECMG 0710/0712 04010KT
BECMG 0713/0715 VRB05KT

Example: see airport list